Time;durP1;ratioP1;P1;durP2;ratioP2;P2;SDS_P1;SDS_P2;PMS_P1;PMS_P2;Temp;Humidity;BMP_temperature;BMP_pressure;BME280_temperature;BME280_humidity;BME280_pressure;Samples;Min_cycle;Max_cycle;Signal;HPM_P1;HPM_P2
2021/06/25 04:48:30;;;;;;;1081.95;979.70;;;;;;;15.86;86.36;100047.34;4339458;23;20029;-58
2021/06/25 04:50:55;;;;;;;1082.85;980.75;;;;;;;15.86;86.27;100048.16;4971781;28;20118;-59
2021/06/25 04:53:21;;;;;;;1082.70;980.47;;;;;;;15.87;85.76;100051.63;4970894;28;20066;-63
2021/06/25 04:55:46;;;;;;;1082.35;980.22;;;;;;;15.93;85.55;100053.78;4973680;28;20506;-62
2021/06/25 04:58:17;;;;;;;1083.40;981.22;;;;;;;15.90;85.32;100048.78;4967614;28;20054;-62
2021/06/25 05:00:44;;;;;;;1081.22;979.17;;;;;;;15.92;84.82;100059.22;4972624;28;20341;-63
2021/06/25 05:03:13;;;;;;;1081.63;979.67;;;;;;;15.91;85.03;100047.78;4974039;28;20027;-63
2021/06/25 05:05:40;;;;;;;1083.38;981.00;;;;;;;15.90;85.27;100043.50;4977278;28;20487;-63
2021/06/25 05:08:06;;;;;;;1080.82;978.75;;;;;;;15.86;84.71;100044.69;4976852;28;20329;-63
2021/06/25 05:10:32;;;;;;;1083.07;980.75;;;;;;;15.87;84.53;100038.44;4977027;28;20050;-62
2021/06/25 05:12:58;;;;;;;1082.53;980.13;;;;;;;15.86;84.52;100042.06;4976454;28;20042;-62
2021/06/25 05:15:23;;;;;;;1082.53;979.83;;;;;;;15.86;85.23;100044.69;4976588;28;20041;-62
2021/06/25 05:17:50;;;;;;;1083.13;980.35;;;;;;;15.89;85.99;100041.78;4973286;28;20172;-68
2021/06/25 05:20:17;;;;;;;1082.15;979.88;;;;;;;15.90;85.89;100045.28;4958421;28;20500;-61
2021/06/25 05:22:46;;;;;;;1083.57;980.72;;;;;;;15.89;85.76;100036.53;4962299;28;20058;-60
2021/06/25 05:25:14;;;;;;;1082.18;979.90;;;;;;;15.95;85.62;100046.59;4962129;28;20058;-61
2021/06/25 05:27:39;;;;;;;1082.78;979.97;;;;;;;16.00;85.76;100046.25;4962280;28;20039;-61
2021/06/25 05:30:06;;;;;;;1083.85;981.22;;;;;;;16.07;86.02;100044.81;4963561;28;20063;-61
2021/06/25 05:32:35;;;;;;;1083.60;980.85;;;;;;;16.11;85.99;100040.09;4965691;28;20058;-61
2021/06/25 05:35:02;;;;;;;1084.97;982.28;;;;;;;16.14;85.76;100048.63;4964843;28;20123;-61
2021/06/25 05:37:29;;;;;;;1085.03;982.30;;;;;;;16.23;85.32;100044.41;4961696;28;20478;-61
2021/06/25 05:39:55;;;;;;;1084.47;981.70;;;;;;;16.32;85.34;100051.63;4960757;28;20653;-62
2021/06/25 05:42:20;;;;;;;1086.03;982.97;;;;;;;16.37;85.04;100046.78;4961905;28;20031;-61
2021/06/25 05:44:45;;;;;;;1083.15;980.45;;;;;;;16.46;84.53;100058.41;4962254;28;20102;-61
2021/06/25 05:47:11;;;;;;;1086.15;983.05;;;;;;;16.49;83.70;100065.25;4962834;28;20065;-60
2021/06/25 05:49:36;;;;;;;1083.05;980.20;;;;;;;16.45;83.42;100065.50;4958542;28;20073;-61
2021/06/25 05:52:02;;;;;;;1086.82;983.65;;;;;;;16.47;83.98;100073.28;4965116;28;20050;-61
2021/06/25 05:54:27;;;;;;;1085.25;981.97;;;;;;;16.46;84.29;100067.16;4963842;28;20038;-61
2021/06/25 05:56:55;;;;;;;1086.00;983.05;;;;;;;16.54;84.32;100069.19;4963591;28;20050;-61
2021/06/25 05:59:20;;;;;;;1086.47;983.35;;;;;;;16.60;84.30;100070.50;4960037;28;20098;-61
2021/06/25 06:01:45;;;;;;;1087.07;983.58;;;;;;;16.64;84.27;100069.28;4964406;28;20031;-61
2021/06/25 06:05:57;;;;;;;1241.65;999.90;;;;;;;16.71;83.72;100067.00;5065416;28;20747;-62
2021/06/25 06:08:25;;;;;;;1252.70;999.90;;;;;;;16.77;84.01;100066.50;5066516;28;20036;-61
2021/06/25 06:10:50;;;;;;;1245.40;999.90;;;;;;;16.77;84.52;100072.59;5065780;28;20029;-62
2021/06/25 06:13:18;;;;;;;1250.80;999.90;;;;;;;16.80;84.32;100067.09;5066651;28;21242;-62
2021/06/25 06:15:43;;;;;;;1254.82;999.90;;;;;;;16.84;84.54;100071.19;5065541;28;20025;-62
2021/06/25 06:18:09;;;;;;;1249.97;999.90;;;;;;;16.83;84.25;100080.06;5064888;28;20033;-61
2021/06/25 06:20:37;;;;;;;1252.75;999.90;;;;;;;16.89;84.16;100083.19;5066336;28;20024;-61
2021/06/25 06:31:24;;;;;;;1257.20;999.90;;;;;;;17.02;82.95;100089.13;5064554;28;20043;-61
2021/06/25 06:36:41;;;;;;;1262.93;999.90;;;;;;;17.08;82.43;100093.91;5064758;28;20144;-61
2021/06/25 06:39:07;;;;;;;1264.75;999.90;;;;;;;17.22;82.50;100104.19;5064634;28;20048;-62
2021/06/25 06:41:36;;;;;;;1259.75;999.90;;;;;;;17.32;82.07;100098.16;5065633;28;20599;-62
2021/06/25 06:44:03;;;;;;;1272.07;999.90;;;;;;;17.35;81.62;100101.34;5063954;28;20047;-62
2021/06/25 06:46:29;;;;;;;1278.80;999.90;;;;;;;17.41;82.14;100102.63;5064863;28;20116;-62
2021/06/25 06:48:54;;;;;;;1275.97;999.90;;;;;;;17.42;81.62;100106.97;5065025;28;20052;-62
2021/06/25 06:51:21;;;;;;;1281.75;999.90;;;;;;;17.43;81.08;100108.63;5064904;28;20028;-62
2021/06/25 06:53:49;;;;;;;1278.10;999.90;;;;;;;17.40;78.85;100103.63;5065569;28;20031;-62
2021/06/25 06:56:21;;;;;;;1271.50;999.90;;;;;;;17.44;77.69;100112.97;5065169;28;20038;-62
2021/06/25 06:58:51;;;;;;;1276.80;999.90;;;;;;;17.47;77.77;100107.44;5064889;28;20067;-62
2021/06/25 07:01:17;;;;;;;1280.95;999.90;;;;;;;17.52;78.26;100113.16;5064051;28;20053;-62
2021/06/25 07:03:42;;;;;;;1277.07;999.90;;;;;;;17.57;77.79;100110.97;5064629;28;20559;-67
2021/06/25 07:06:08;;;;;;;1280.65;999.90;;;;;;;17.66;76.68;100113.81;5066742;28;20442;-65
2021/06/25 07:08:33;;;;;;;1277.88;999.90;;;;;;;17.71;76.56;100119.56;5068377;28;20031;-66
2021/06/25 07:11:00;;;;;;;1278.40;999.90;;;;;;;17.81;73.94;100125.72;5065123;28;20033;-66
2021/06/25 07:13:25;;;;;;;1282.03;999.90;;;;;;;17.82;73.97;100130.06;5054209;28;20132;-66
2021/06/25 07:15:51;;;;;;;1278.85;999.90;;;;;;;17.95;72.00;100136.03;5045006;28;20494;-65
2021/06/25 07:18:19;;;;;;;1278.70;999.90;;;;;;;17.99;71.63;100134.78;5042519;28;20138;-65
2021/06/25 07:20:44;;;;;;;1278.35;999.90;;;;;;;17.97;72.86;100138.56;5053415;28;20065;-65
2021/06/25 07:23:10;;;;;;;1280.18;999.90;;;;;;;17.95;73.18;100136.03;5053784;28;20429;-65
2021/06/25 07:25:37;;;;;;;1279.80;999.90;;;;;;;17.96;74.07;100134.22;5054690;28;20029;-66
2021/06/25 07:28:03;;;;;;;1285.25;999.90;;;;;;;18.78;71.38;100130.59;4983641;28;20044;-55
2021/06/25 07:30:28;;;;;;;1352.78;999.90;;;;;;;21.12;67.36;100132.63;4991521;28;20101;-56
2021/06/25 07:34:54;;;;;;;741.83;705.95;;;;;;;23.29;55.47;100129.72;5078162;28;20415;-63
2021/06/25 07:37:24;;;;;;;727.50;693.40;;;;;;;23.73;53.31;100133.84;5063593;28;20062;-58
2021/06/25 07:39:50;;;;;;;731.67;697.13;;;;;;;23.73;52.34;100128.50;5069455;28;20024;-58
2021/06/25 07:42:15;;;;;;;732.05;698.05;;;;;;;23.75;51.62;100129.19;5067492;28;20067;-58
2021/06/25 07:44:41;;;;;;;729.67;695.97;;;;;;;23.74;51.83;100132.00;5059585;28;20445;-62
2021/06/25 07:47:07;;;;;;;734.42;700.20;;;;;;;23.90;51.97;100133.88;5069554;28;20025;-60
2021/06/25 07:49:34;;;;;;;734.65;700.50;;;;;;;23.98;52.06;100137.34;5069555;28;20039;-59
2021/06/25 07:51:59;;;;;;;735.42;701.25;;;;;;;24.05;51.75;100135.66;5058635;28;20029;-59
2021/06/25 07:54:24;;;;;;;732.88;699.03;;;;;;;24.11;51.82;100134.13;5069658;28;20418;-60
2021/06/25 07:56:50;;;;;;;736.53;702.25;;;;;;;24.15;51.61;100129.28;5054962;28;20033;-60
2021/06/25 07:59:17;;;;;;;729.90;696.20;;;;;;;24.23;51.70;100132.75;4997249;28;20052;-59
2021/06/25 08:01:43;;;;;;;737.53;703.22;;;;;;;24.24;51.82;100123.72;5052547;28;20087;-59
2021/06/25 08:04:08;;;;;;;733.60;699.45;;;;;;;24.23;51.70;100123.91;5055344;28;20021;-59
2021/06/25 08:06:36;;;;;;;735.97;701.95;;;;;;;24.26;51.55;100126.22;5050003;28;20525;-58
2021/06/25 08:09:07;;;;;;;733.75;699.72;;;;;;;24.29;51.42;100123.19;5050104;28;20055;-59
2021/06/25 08:11:32;;;;;;;833.63;784.92;;;;;;;24.52;51.57;100130.50;5057144;28;20474;-64
2021/06/25 08:13:58;;;;;;;861.03;807.00;;;;;;;24.61;51.78;100127.59;5056419;28;20025;-68
2021/06/25 08:16:25;;;;;;;821.80;775.47;;;;;;;24.92;53.01;100129.41;5062367;28;20110;-63
2021/06/25 08:20:56;;;;;;;935.63;871.40;;;;;;;24.46;51.41;100127.47;5039444;27;20895;-62
2021/06/25 08:23:21;;;;;;;925.85;862.10;;;;;;;24.41;51.71;100119.16;5004450;28;82435;-61
2021/06/25 08:25:47;;;;;;;;;;;;;;;24.39;51.81;100128.34;5004101;28;20026;-61
2021/06/25 08:28:15;;;;;;;936.42;871.38;;;;;;;24.38;51.58;100118.66;5012303;28;20000;-62
2021/06/25 08:30:40;;;;;;;928.25;864.30;;;;;;;24.37;51.82;100122.31;5001901;28;20125;-62
2021/06/25 08:34:23;;;;;;;764.95;727.17;;;;;;;24.51;51.56;100124.31;5051509;28;20491;-65
2021/06/25 08:36:48;;;;;;;772.17;734.17;;;;;;;24.48;51.89;100121.94;5017735;28;20057;-67
2021/06/25 08:39:13;;;;;;;763.05;725.50;;;;;;;24.44;51.94;100125.97;5029166;28;20036;-67
2021/06/25 08:41:39;;;;;;;763.65;726.10;;;;;;;24.42;51.87;100126.16;5029825;28;20029;-67
2021/06/25 08:44:05;;;;;;;759.80;722.65;;;;;;;24.40;51.83;100122.81;5046163;28;20022;-67
2021/06/25 08:46:32;;;;;;;762.57;725.20;;;;;;;24.41;52.04;100112.94;5024971;28;20057;-67
2021/06/25 08:49:04;;;;;;;763.43;726.07;;;;;;;24.41;51.96;100119.16;5031547;28;20041;-70
2021/06/25 08:51:31;;;;;;;754.03;716.65;;;;;;;24.39;51.09;100109.59;5025934;28;20069;-66
2021/06/25 08:53:59;;;;;;;757.77;720.73;;;;;;;24.31;51.05;100113.16;5030478;28;20037;-68
2021/06/25 08:56:29;;;;;;;757.53;720.08;;;;;;;24.22;49.60;100123.06;5037366;28;20266;-66
2021/06/25 08:58:55;;;;;;;758.50;721.30;;;;;;;24.15;49.03;100119.41;5034965;28;20033;-70
2021/06/25 09:01:22;;;;;;;754.72;717.72;;;;;;;24.07;48.40;100112.25;5033089;28;20141;-68
2021/06/25 09:03:52;;;;;;;751.17;714.43;;;;;;;24.07;48.75;100114.09;5038545;28;20036;-67
2021/06/25 09:06:20;;;;;;;761.97;724.67;;;;;;;24.06;48.00;100117.78;5042545;28;20382;-67
2021/06/25 09:08:46;;;;;;;754.53;717.70;;;;;;;24.01;48.26;100117.44;5031170;28;20030;-67
2021/06/25 09:11:26;;;;;;;757.05;719.80;;;;;;;24.02;48.51;100119.13;5029220;28;20364;-66
2021/06/25 09:14:02;;;;;;;768.70;731.05;;;;;;;24.01;47.86;100115.63;5030239;28;20103;-67
2021/06/25 09:16:28;;;;;;;;;;;;;;;23.92;48.18;100118.50;5025984;28;20358;-68
2021/06/25 09:19:07;;;;;;;768.38;730.28;;;;;;;23.88;48.32;100115.31;5021806;28;20024;-69
2021/06/25 09:21:38;;;;;;;765.70;727.60;;;;;;;23.92;48.33;100118.50;5028460;28;20454;-65
2021/06/25 09:24:17;;;;;;;761.75;724.40;;;;;;;23.95;48.19;100115.47;5017927;28;20030;-66
2021/06/25 09:26:44;;;;;;;765.88;728.20;;;;;;;23.84;48.48;100116.69;5023955;28;20355;-68
2021/06/25 09:29:19;;;;;;;758.33;721.05;;;;;;;23.77;48.34;100111.13;5019443;28;20084;-66
2021/06/25 09:31:55;;;;;;;761.38;723.88;;;;;;;23.69;47.76;100109.31;5023790;28;20030;-66
2021/06/25 09:34:36;;;;;;;754.42;717.10;;;;;;;23.60;47.75;100107.66;5021013;28;20091;-69
2021/06/25 09:37:04;;;;;;;763.60;725.80;;;;;;;23.51;47.98;100103.34;5019873;28;20409;-67
2021/06/25 09:39:29;;;;;;;764.55;726.60;;;;;;;23.53;48.03;100097.81;5026941;28;20033;-68
2021/06/25 09:41:57;;;;;;;754.30;716.70;;;;;;;23.60;47.78;100104.16;5026473;28;20091;-67
2021/06/25 09:44:24;;;;;;;756.40;719.30;;;;;;;23.63;47.42;100109.16;5023255;28;20124;-66
2021/06/25 09:46:52;;;;;;;752.03;714.95;;;;;;;23.66;47.16;100111.47;5015175;28;20402;-67
2021/06/25 09:49:23;;;;;;;;;;;;;;;23.66;47.16;100104.31;4997281;28;20037;-68
2021/06/25 09:51:56;;;;;;;762.50;724.92;;;;;;;23.72;47.51;100096.63;5014654;28;19943;-70
2021/06/25 09:54:27;;;;;;;755.03;718.10;;;;;;;23.77;48.03;100105.78;5016302;28;20458;-69
2021/06/25 09:57:13;;;;;;;762.42;724.30;;;;;;;23.79;48.30;100103.81;5016284;28;20087;-69
2021/06/25 10:02:19;;;;;;;755.03;718.13;;;;;;;23.71;47.09;100111.81;4996792;28;20026;-67
2021/06/25 10:04:47;;;;;;;755.25;718.08;;;;;;;23.74;47.20;100107.97;5007142;28;20064;-66
2021/06/25 10:07:20;;;;;;;757.20;720.05;;;;;;;23.76;47.31;100114.81;5014909;28;20046;-68
2021/06/25 10:09:50;;;;;;;755.13;718.03;;;;;;;23.79;48.10;100108.31;5007605;28;20325;-67
2021/06/25 10:12:18;;;;;;;756.22;719.05;;;;;;;23.80;47.88;100105.50;5006662;28;20372;-69
2021/06/25 10:14:47;;;;;;;753.28;716.38;;;;;;;23.78;47.76;100101.28;4996691;28;20038;-66
2021/06/25 10:17:14;;;;;;;751.80;715.05;;;;;;;23.73;47.69;100101.78;5011143;28;20353;-69
2021/06/25 10:19:44;;;;;;;754.55;717.78;;;;;;;23.68;47.80;100099.66;4996623;28;20432;-67
2021/06/25 10:22:11;;;;;;;758.50;721.80;;;;;;;23.73;47.58;100106.31;5001412;28;20440;-66
2021/06/25 10:24:38;;;;;;;;;;;;;;;23.67;47.65;100100.63;5003559;28;20033;-66
2021/06/25 10:27:09;;;;;;;757.63;720.47;;;;;;;23.84;47.64;100101.47;5018609;28;19921;-66
2021/06/25 10:29:37;;;;;;;761.35;724.15;;;;;;;24.01;48.20;100118.28;5021542;28;20026;-68
2021/06/25 10:32:10;;;;;;;751.10;714.58;;;;;;;24.05;48.38;100113.44;5031717;28;20091;-68
2021/06/25 10:34:40;;;;;;;754.35;717.13;;;;;;;24.09;48.03;100109.41;5019057;28;20029;-67
2021/06/25 10:37:09;;;;;;;751.05;714.70;;;;;;;24.10;48.41;100100.38;5024252;28;20029;-66
2021/06/25 10:39:36;;;;;;;753.55;716.08;;;;;;;24.07;48.40;100092.72;5004752;28;20105;-66
2021/06/25 10:42:11;;;;;;;759.15;722.17;;;;;;;23.88;47.96;100097.44;5015377;28;20034;-66
2021/06/25 10:44:42;;;;;;;752.33;715.73;;;;;;;23.85;48.28;100092.44;5031315;28;20123;-66
2021/06/25 10:47:29;;;;;;;756.78;719.78;;;;;;;23.88;47.71;100091.28;5028662;28;20056;-66
2021/06/25 10:50:13;;;;;;;752.80;716.08;;;;;;;23.82;47.13;100094.63;5031121;28;20438;-66
2021/06/25 10:52:40;;;;;;;756.53;719.85;;;;;;;23.78;46.47;100088.78;5019837;28;20095;-66
2021/06/25 10:55:16;;;;;;;761.47;724.50;;;;;;;23.87;46.89;100089.59;5028399;28;20056;-69
2021/06/25 10:57:53;;;;;;;754.85;718.03;;;;;;;23.88;46.43;100097.44;5020247;28;20362;-70
2021/06/25 11:00:28;;;;;;;760.38;723.33;;;;;;;23.91;47.15;100085.56;5028372;28;20040;-70
2021/06/25 11:02:56;;;;;;;750.70;714.23;;;;;;;23.92;47.62;100081.91;5028255;28;20112;-71
2021/06/25 11:05:27;;;;;;;754.78;718.25;;;;;;;23.98;47.37;100080.38;5003079;28;20460;-70
2021/06/25 11:07:55;;;;;;;755.92;719.25;;;;;;;24.04;47.56;100079.69;5000946;28;20030;-69
2021/06/25 11:10:34;;;;;;;753.80;717.03;;;;;;;24.09;48.00;100082.69;4995326;28;20511;-69
2021/06/25 11:13:12;;;;;;;755.25;718.42;;;;;;;23.95;47.50;100086.06;5004231;28;20411;-70
2021/06/25 11:15:38;;;;;;;755.50;718.70;;;;;;;23.74;47.41;100075.91;5014843;28;20030;-71
2021/06/25 11:18:31;;;;;;;753.17;716.47;;;;;;;23.66;46.90;100076.75;5011901;28;20121;-68
2021/06/25 11:20:59;;;;;;;752.17;715.33;;;;;;;23.66;46.56;100076.75;5014717;28;20033;-69
2021/06/25 11:23:39;;;;;;;755.78;718.92;;;;;;;23.71;46.47;100069.06;5014701;28;20022;-69
2021/06/25 11:26:13;;;;;;;750.70;714.17;;;;;;;23.75;46.40;100074.91;5019257;28;20025;-71
2021/06/25 11:28:53;;;;;;;755.20;718.40;;;;;;;23.82;46.90;100068.75;5014201;28;20032;-69
2021/06/25 11:31:28;;;;;;;757.80;721.08;;;;;;;23.91;46.57;100074.88;5022079;28;20108;-68
2021/06/25 11:34:01;;;;;;;758.08;720.80;;;;;;;23.94;46.70;100076.41;5008297;28;20038;-68
2021/06/25 11:36:52;;;;;;;762.95;725.70;;;;;;;23.88;46.04;100086.75;5008713;28;20272;-68
2021/06/25 11:39:24;;;;;;;752.15;715.42;;;;;;;23.82;45.86;100073.25;5004358;28;20080;-69
2021/06/25 11:41:55;;;;;;;755.75;718.42;;;;;;;23.82;46.11;100070.59;4997849;28;20026;-70
2021/06/25 11:44:56;;;;;;;753.88;716.90;;;;;;;23.88;46.03;100076.06;5009723;28;20049;-70
2021/06/25 11:47:28;;;;;;;757.35;720.20;;;;;;;23.88;45.84;100081.41;5022176;28;20121;-69
2021/06/25 11:50:03;;;;;;;754.75;717.78;;;;;;;23.87;45.89;100074.41;5008145;28;20037;-69
2021/06/25 11:52:33;;;;;;;753.47;716.28;;;;;;;23.84;45.90;100074.75;5007796;28;20029;-71
2021/06/25 11:55:06;;;;;;;756.50;719.53;;;;;;;23.86;45.99;100078.06;5005252;28;20025;-69
2021/06/25 11:57:34;;;;;;;754.90;717.78;;;;;;;23.80;45.50;100072.59;5003759;28;20028;-70
2021/06/25 12:00:10;;;;;;;750.75;714.28;;;;;;;23.77;45.31;100062.22;5002918;28;20025;-65
2021/06/25 12:02:46;;;;;;;754.42;717.95;;;;;;;23.91;46.07;100061.50;5012444;28;20026;-69
2021/06/25 12:05:14;;;;;;;752.75;716.33;;;;;;;24.04;45.85;100058.31;5008935;28;20417;-70
2021/06/25 12:07:41;;;;;;;757.75;720.85;;;;;;;24.11;46.26;100061.13;5007651;28;20038;-69
2021/06/25 12:10:07;;;;;;;757.75;721.03;;;;;;;24.17;46.13;100058.56;5002954;28;20034;-69
2021/06/25 12:12:35;;;;;;;758.20;721.75;;;;;;;24.21;46.37;100062.56;5006115;28;20371;-71
2021/06/25 12:15:05;;;;;;;758.20;721.38;;;;;;;24.24;46.38;100056.88;5001828;28;20391;-69
2021/06/25 12:17:50;;;;;;;757.33;720.63;;;;;;;24.27;46.18;100056.50;5007461;28;20367;-69
2021/06/25 12:20:30;;;;;;;756.28;719.80;;;;;;;24.29;46.47;100058.19;5008782;28;20030;-68
2021/06/25 12:23:00;;;;;;;758.20;721.55;;;;;;;24.30;46.28;100057.16;5012413;28;20435;-68
2021/06/25 12:25:46;;;;;;;756.17;719.65;;;;;;;24.33;46.47;100064.84;5004713;28;20303;-68
2021/06/25 12:28:18;;;;;;;761.15;724.45;;;;;;;24.33;46.86;100056.81;5004303;28;20029;-67
2021/06/25 12:30:59;;;;;;;756.85;720.05;;;;;;;24.33;46.74;100057.66;5004934;28;20080;-67
2021/06/25 12:33:29;;;;;;;760.65;723.83;;;;;;;24.36;46.87;100056.50;5004524;28;20348;-69
2021/06/25 12:35:56;;;;;;;759.20;722.60;;;;;;;24.36;46.93;100056.50;5004450;28;20026;-69
2021/06/25 12:38:23;;;;;;;758.38;721.90;;;;;;;24.37;46.99;100056.28;5004251;28;20109;-69
2021/06/25 12:40:58;;;;;;;760.28;723.65;;;;;;;24.38;47.05;100059.81;5008089;28;20030;-71
2021/06/25 12:43:42;;;;;;;759.25;722.65;;;;;;;24.39;46.96;100054.31;5001911;28;20034;-70
2021/06/25 12:46:11;;;;;;;752.13;716.00;;;;;;;24.41;47.17;100056.78;5005983;28;20029;-70
2021/06/25 12:48:39;;;;;;;760.95;724.33;;;;;;;24.42;47.42;100061.13;5006647;28;20099;-70
2021/06/25 12:51:10;;;;;;;753.47;717.22;;;;;;;24.43;47.27;100062.78;5005966;28;20417;-69
2021/06/25 12:53:40;;;;;;;755.50;719.35;;;;;;;24.43;47.48;100054.75;5003476;28;20045;-69
2021/06/25 12:56:17;;;;;;;762.22;725.45;;;;;;;24.44;47.52;100056.44;5003084;28;20447;-69
2021/06/25 12:58:46;;;;;;;763.17;726.22;;;;;;;24.47;47.51;100058.78;5004908;28;20779;-71
2021/06/25 13:01:12;;;;;;;756.40;720.10;;;;;;;24.47;47.60;100056.09;5009289;28;20088;-69
2021/06/25 13:03:41;;;;;;;764.97;727.92;;;;;;;24.46;47.74;100057.09;5005431;28;20034;-70
2021/06/25 13:06:25;;;;;;;756.05;719.80;;;;;;;24.45;47.74;100060.78;5003803;28;20029;-71
2021/06/25 13:08:53;;;;;;;754.92;718.67;;;;;;;24.46;47.63;100054.41;5013555;28;20088;-67
2021/06/25 13:11:37;;;;;;;752.95;716.85;;;;;;;24.46;47.89;100054.41;5007959;28;20029;-70
2021/06/25 13:14:03;;;;;;;761.28;724.58;;;;;;;24.49;48.12;100056.75;5003301;28;20096;-69
2021/06/25 13:16:29;;;;;;;755.97;719.78;;;;;;;24.53;48.14;100050.06;4999494;28;20104;-75
2021/06/25 13:19:02;;;;;;;771.03;727.72;;;;;;;24.58;48.15;100050.34;5000612;28;20394;-67
2021/06/25 13:21:27;;;;;;;762.13;724.35;;;;;;;24.69;47.93;100050.97;5000615;28;20041;-77
2021/06/25 13:24:11;;;;;;;764.53;726.83;;;;;;;24.67;46.52;100050.31;5005071;28;20029;-77
2021/06/25 13:26:53;;;;;;;763.28;725.97;;;;;;;24.53;44.88;100055.41;5014566;28;20064;-76
2021/06/25 13:29:23;;;;;;;762.55;724.95;;;;;;;24.31;45.04;100048.97;5010187;28;20091;-70
2021/06/25 13:32:03;;;;;;;763.50;725.92;;;;;;;24.32;45.60;100052.50;5012300;28;20029;-73
2021/06/25 13:34:30;;;;;;;763.55;725.88;;;;;;;24.30;46.58;100059.84;5013713;28;20026;-68
2021/06/25 13:36:59;;;;;;;758.20;721.40;;;;;;;24.27;46.84;100045.81;5012672;28;20025;-70
2021/06/25 13:39:30;;;;;;;767.28;729.63;;;;;;;24.31;47.11;100051.66;5003748;28;20077;-70
2021/06/25 13:41:57;;;;;;;760.58;723.67;;;;;;;24.31;47.39;100057.00;5004021;28;20049;-68
2021/06/25 13:44:31;;;;;;;756.90;719.97;;;;;;;24.32;47.42;100060.53;5002547;28;20104;-70
2021/06/25 13:47:12;;;;;;;764.05;726.85;;;;;;;24.27;48.41;100059.19;4996590;28;20042;-68
2021/06/25 13:49:41;;;;;;;761.75;724.58;;;;;;;24.27;48.23;100056.50;5004298;28;20038;-68
2021/06/25 13:52:27;;;;;;;759.88;723.00;;;;;;;24.27;48.70;100056.50;4997693;28;20073;-68
2021/06/25 13:55:14;;;;;;;766.60;729.20;;;;;;;24.29;48.78;100055.53;5011701;28;20030;-68
2021/06/25 13:57:49;;;;;;;759.17;722.33;;;;;;;24.32;48.46;100057.84;4998365;28;20683;-76
2021/06/25 14:00:33;;;;;;;759.63;722.43;;;;;;;24.48;48.14;100057.75;5008069;28;20092;-63
2021/06/25 14:03:00;;;;;;;760.13;722.55;;;;;;;24.54;47.92;100059.75;5013434;28;20443;-62
2021/06/25 14:05:28;;;;;;;761.60;723.85;;;;;;;24.57;48.14;100063.91;5006110;28;20044;-64
2021/06/25 14:08:03;;;;;;;760.80;723.47;;;;;;;24.58;47.91;100058.38;5007571;28;20650;-64
2021/06/25 14:10:31;;;;;;;757.40;720.17;;;;;;;24.60;48.43;100064.41;5008684;28;20034;-63
2021/06/25 14:12:58;;;;;;;759.30;722.40;;;;;;;24.60;48.31;100064.41;5005547;28;20092;-63
2021/06/25 14:15:49;;;;;;;757.47;720.40;;;;;;;24.60;48.05;100053.72;5010179;28;20041;-63
2021/06/25 14:18:17;;;;;;;761.70;724.42;;;;;;;24.61;48.29;100066.06;5009746;28;20045;-63
2021/06/25 14:20:45;;;;;;;756.78;720.08;;;;;;;24.59;48.03;100062.72;5013043;28;20052;-65
2021/06/25 14:23:16;;;;;;;754.22;717.75;;;;;;;24.47;46.14;100058.78;5000004;28;20026;-66
2021/06/25 14:25:45;;;;;;;758.85;721.58;;;;;;;24.41;46.31;100072.81;5015914;28;20045;-65
2021/06/25 14:28:11;;;;;;;753.85;717.55;;;;;;;24.32;45.33;100065.88;5004758;28;20153;-65
2021/06/25 14:30:38;;;;;;;760.60;723.88;;;;;;;24.26;45.31;100057.53;5009201;28;20499;-64
2021/06/25 14:33:04;;;;;;;762.10;724.97;;;;;;;24.27;45.12;100059.19;4995784;28;20042;-64
2021/06/25 14:35:32;;;;;;;759.08;722.47;;;;;;;24.30;44.90;100065.19;5000950;28;20037;-64
2021/06/25 14:37:57;;;;;;;755.83;719.35;;;;;;;24.30;45.07;100062.50;5015377;28;20026;-64
2021/06/25 14:40:23;;;;;;;754.95;718.70;;;;;;;24.31;44.89;100064.19;5010573;28;20411;-64
2021/06/25 14:42:51;;;;;;;759.75;723.15;;;;;;;24.34;44.54;100063.84;5008153;28;20096;-64
2021/06/25 14:45:16;;;;;;;759.40;722.60;;;;;;;24.35;44.83;100060.16;5006482;28;20032;-64
2021/06/25 14:47:41;;;;;;;753.83;717.60;;;;;;;24.33;44.61;100052.31;5014201;28;20033;-64
2021/06/25 14:50:09;;;;;;;755.40;718.97;;;;;;;24.33;44.59;100062.19;5013442;28;20025;-65
2021/06/25 14:52:35;;;;;;;755.70;719.17;;;;;;;24.27;44.92;100064.53;5015349;28;20037;-65
2021/06/25 14:55:02;;;;;;;754.72;718.28;;;;;;;24.25;44.57;100060.38;5006674;28;20030;-65
2021/06/25 14:57:30;;;;;;;751.83;715.70;;;;;;;24.24;44.72;100054.22;4997414;28;20026;-65
2021/06/25 14:59:58;;;;;;;750.92;714.78;;;;;;;24.27;44.53;100059.19;5003786;28;20087;-65
2021/06/25 15:02:28;;;;;;;755.30;718.67;;;;;;;24.29;44.86;100061.69;5014586;28;20463;-65
2021/06/25 15:04:53;;;;;;;752.72;716.65;;;;;;;24.32;44.31;100057.84;5006087;28;20367;-65
2021/06/25 15:07:21;;;;;;;755.78;719.47;;;;;;;24.34;44.28;100053.16;4994835;28;20026;-64
2021/06/25 15:09:46;;;;;;;754.25;718.05;;;;;;;24.38;44.54;100049.13;5029457;28;20216;-64
2021/06/25 15:12:12;;;;;;;756.07;719.67;;;;;;;24.40;44.61;100049.78;5001481;28;20113;-65
2021/06/25 15:14:37;;;;;;;751.50;715.10;;;;;;;24.39;44.62;100056.13;5010427;28;20121;-65
2021/06/25 15:17:05;;;;;;;756.25;719.95;;;;;;;24.37;44.71;100048.28;5014221;28;20437;-64
2021/06/25 15:19:30;;;;;;;753.88;717.38;;;;;;;24.37;44.73;100040.25;5011966;28;20478;-64
2021/06/25 15:21:58;;;;;;;752.28;716.13;;;;;;;24.36;44.73;100038.59;5004972;28;20034;-64
2021/06/25 15:24:26;;;;;;;751.05;715.05;;;;;;;24.34;44.88;100045.97;4996376;28;20403;-64
2021/06/25 15:26:51;;;;;;;748.70;712.88;;;;;;;24.27;44.06;100040.47;4994623;28;20026;-65
2021/06/25 15:29:18;;;;;;;753.25;717.05;;;;;;;24.26;44.07;100041.50;4994510;28;20026;-65
2021/06/25 15:31:44;;;;;;;748.40;712.35;;;;;;;24.26;43.86;100038.81;5007027;28;20454;-64
2021/06/25 15:34:09;;;;;;;755.28;719.08;;;;;;;24.27;43.77;100043.13;5013591;28;20042;-65
2021/06/25 15:36:34;;;;;;;755.65;719.28;;;;;;;24.22;44.21;100033.97;5013584;28;20084;-65
2021/06/25 15:39:00;;;;;;;756.00;719.67;;;;;;;24.23;44.28;100041.84;5004030;28;20030;-64
2021/06/25 15:41:25;;;;;;;756.08;719.80;;;;;;;24.30;44.08;100041.13;4994242;28;20466;-64
2021/06/25 15:43:50;;;;;;;752.08;715.88;;;;;;;24.26;44.71;100041.50;4996430;28;20014;-65
2021/06/25 15:46:16;;;;;;;758.25;721.60;;;;;;;24.14;44.34;100037.53;5013862;28;20439;-65
2021/06/25 15:48:41;;;;;;;753.70;717.47;;;;;;;24.12;44.18;100036.03;5013769;28;20033;-64
2021/06/25 15:51:07;;;;;;;753.22;717.05;;;;;;;24.13;44.13;100035.06;5013762;28;20454;-65
2021/06/25 15:53:32;;;;;;;756.67;720.40;;;;;;;24.13;44.25;100035.88;5028524;28;20030;-64
2021/06/25 15:56:00;;;;;;;751.90;715.95;;;;;;;24.13;44.38;100035.88;5004134;28;20037;-65
2021/06/25 15:58:25;;;;;;;756.17;719.85;;;;;;;24.20;44.45;100026.16;4993941;28;20041;-67
2021/06/25 16:00:50;;;;;;;755.80;719.40;;;;;;;24.27;44.23;100027.09;5006500;28;20471;-65
2021/06/25 16:03:16;;;;;;;753.53;717.17;;;;;;;24.31;44.56;100037.47;5013473;28;20026;-65
2021/06/25 16:05:44;;;;;;;755.70;719.35;;;;;;;24.28;44.82;100033.31;5028523;28;20053;-65
2021/06/25 16:08:10;;;;;;;756.42;719.92;;;;;;;24.22;44.85;100021.47;5013360;28;20025;-65
2021/06/25 16:10:37;;;;;;;751.90;715.38;;;;;;;24.18;44.81;100030.84;5013239;28;20053;-65
2021/06/25 16:13:12;;;;;;;754.42;718.33;;;;;;;24.18;44.99;100028.19;5002098;28;20034;-65